sensor_id;sensor_type;location;lat;lon;timestamp;pressure;altitude;pressure_sealevel;temperature
24714;BMP280;12820;51.580;5.010;2023-03-01T00:00:25;103075.84;;;4.05
24714;BMP280;12820;51.580;5.010;2023-03-01T00:05:27;103078.97;;;4.01
24714;BMP280;12820;51.580;5.010;2023-03-01T00:10:29;103077.16;;;3.99
24714;BMP280;12820;51.580;5.010;2023-03-01T00:15:31;103069.50;;;3.94
24714;BMP280;12820;51.580;5.010;2023-03-01T00:20:34;103077.59;;;3.90
24714;BMP280;12820;51.580;5.010;2023-03-01T00:25:42;103077.38;;;3.86
24714;BMP280;12820;51.580;5.010;2023-03-01T00:30:44;103073.91;;;3.83
24714;BMP280;12820;51.580;5.010;2023-03-01T00:35:47;103077.81;;;3.78
24714;BMP280;12820;51.580;5.010;2023-03-01T00:40:49;103088.41;;;3.74
24714;BMP280;12820;51.580;5.010;2023-03-01T00:45:51;103083.13;;;3.68
24714;BMP280;12820;51.580;5.010;2023-03-01T00:50:54;103083.78;;;3.64
24714;BMP280;12820;51.580;5.010;2023-03-01T00:55:57;103076.94;;;3.60
24714;BMP280;12820;51.580;5.010;2023-03-01T01:00:59;103065.94;;;3.55
24714;BMP280;12820;51.580;5.010;2023-03-01T01:06:01;103061.56;;;3.52
24714;BMP280;12820;51.580;5.010;2023-03-01T01:11:12;103053.97;;;3.49
24714;BMP280;12820;51.580;5.010;2023-03-01T01:16:16;103050.41;;;3.44
24714;BMP280;12820;51.580;5.010;2023-03-01T01:21:21;103041.97;;;3.40
24714;BMP280;12820;51.580;5.010;2023-03-01T01:26:28;103043.38;;;3.36
24714;BMP280;12820;51.580;5.010;2023-03-01T01:31:32;103032.41;;;3.32
24714;BMP280;12820;51.580;5.010;2023-03-01T01:36:36;103025.59;;;3.28
24714;BMP280;12820;51.580;5.010;2023-03-01T01:41:40;103023.75;;;3.24
24714;BMP280;12820;51.580;5.010;2023-03-01T01:47:00;103013.56;;;3.20
24714;BMP280;12820;51.580;5.010;2023-03-01T01:52:11;103001.78;;;3.16
24714;BMP280;12820;51.580;5.010;2023-03-01T01:57:18;103002.47;;;3.14
24714;BMP280;12820;51.580;5.010;2023-03-01T02:02:21;102988.97;;;3.09
24714;BMP280;12820;51.580;5.010;2023-03-01T02:07:24;102996.28;;;3.06
24714;BMP280;12820;51.580;5.010;2023-03-01T02:12:26;102991.19;;;3.03
24714;BMP280;12820;51.580;5.010;2023-03-01T02:17:29;102983.56;;;3.00
24714;BMP280;12820;51.580;5.010;2023-03-01T02:22:33;102976.81;;;2.98
24714;BMP280;12820;51.580;5.010;2023-03-01T02:27:42;102977.47;;;2.94
24714;BMP280;12820;51.580;5.010;2023-03-01T02:32:45;102972.41;;;2.92
24714;BMP280;12820;51.580;5.010;2023-03-01T02:37:48;102982.97;;;2.88
24714;BMP280;12820;51.580;5.010;2023-03-01T02:42:53;102985.28;;;2.85
24714;BMP280;12820;51.580;5.010;2023-03-01T02:47:57;102988.59;;;2.84
24714;BMP280;12820;51.580;5.010;2023-03-01T02:53:08;102996.63;;;2.81
24714;BMP280;12820;51.580;5.010;2023-03-01T02:58:12;102994.78;;;2.77
24714;BMP280;12820;51.580;5.010;2023-03-01T03:03:16;102998.88;;;2.76
24714;BMP280;12820;51.580;5.010;2023-03-01T03:08:18;102988.81;;;2.73
24714;BMP280;12820;51.580;5.010;2023-03-01T03:13:26;102992.91;;;2.73
24714;BMP280;12820;51.580;5.010;2023-03-01T03:18:30;102982.84;;;2.70
24714;BMP280;12820;51.580;5.010;2023-03-01T03:23:32;102973.50;;;2.66
24714;BMP280;12820;51.580;5.010;2023-03-01T03:28:35;102975.84;;;2.63
24714;BMP280;12820;51.580;5.010;2023-03-01T03:33:37;102969.13;;;2.61
24714;BMP280;12820;51.580;5.010;2023-03-01T03:38:40;102980.50;;;2.57
24714;BMP280;12820;51.580;5.010;2023-03-01T03:43:42;102968.03;;;2.56
24714;BMP280;12820;51.580;5.010;2023-03-01T03:48:45;102971.19;;;2.53
24714;BMP280;12820;51.580;5.010;2023-03-01T03:53:48;102956.22;;;2.52
24714;BMP280;12820;51.580;5.010;2023-03-01T03:58:50;102961.91;;;2.49
24714;BMP280;12820;51.580;5.010;2023-03-01T04:03:52;102960.91;;;2.46
24714;BMP280;12820;51.580;5.010;2023-03-01T04:08:56;102964.06;;;2.44
24714;BMP280;12820;51.580;5.010;2023-03-01T04:14:00;102958.19;;;2.42
24714;BMP280;12820;51.580;5.010;2023-03-01T04:19:02;102952.28;;;2.40
24714;BMP280;12820;51.580;5.010;2023-03-01T04:24:04;102949.66;;;2.37
24714;BMP280;12820;51.580;5.010;2023-03-01T04:29:06;102954.44;;;2.34
24714;BMP280;12820;51.580;5.010;2023-03-01T04:34:09;102957.63;;;2.31
24714;BMP280;12820;51.580;5.010;2023-03-01T04:39:11;102956.69;;;2.30
24714;BMP280;12820;51.580;5.010;2023-03-01T04:44:16;102955.78;;;2.28
24714;BMP280;12820;51.580;5.010;2023-03-01T04:49:18;102947.31;;;2.24
24714;BMP280;12820;51.580;5.010;2023-03-01T04:54:20;102944.69;;;2.21
24714;BMP280;12820;51.580;5.010;2023-03-01T04:59:22;102928.84;;;2.19
24714;BMP280;12820;51.580;5.010;2023-03-01T05:04:24;102918.00;;;2.17
24714;BMP280;12820;51.580;5.010;2023-03-01T05:09:26;102919.63;;;2.17
24714;BMP280;12820;51.580;5.010;2023-03-01T05:14:28;102915.34;;;2.14
24714;BMP280;12820;51.580;5.010;2023-03-01T05:19:31;102898.72;;;2.12
24714;BMP280;12820;51.580;5.010;2023-03-01T05:24:34;102906.16;;;2.12
24714;BMP280;12820;51.580;5.010;2023-03-01T05:29:36;102900.19;;;2.09
24714;BMP280;12820;51.580;5.010;2023-03-01T05:34:41;102897.53;;;2.06
24714;BMP280;12820;51.580;5.010;2023-03-01T05:39:44;102884.91;;;2.01
24714;BMP280;12820;51.580;5.010;2023-03-01T05:44:46;102876.47;;;1.98
24714;BMP280;12820;51.580;5.010;2023-03-01T05:49:48;102875.44;;;1.94
24714;BMP280;12820;51.580;5.010;2023-03-01T05:54:52;102870.22;;;1.90
24714;BMP280;12820;51.580;5.010;2023-03-01T05:59:54;102873.34;;;1.86
24714;BMP280;12820;51.580;5.010;2023-03-01T06:04:56;102871.47;;;1.82
24714;BMP280;12820;51.580;5.010;2023-03-01T06:09:58;102878.75;;;1.79
24714;BMP280;12820;51.580;5.010;2023-03-01T06:15:01;102879.34;;;1.76
24714;BMP280;12820;51.580;5.010;2023-03-01T06:20:05;102895.69;;;1.72
24714;BMP280;12820;51.580;5.010;2023-03-01T06:25:08;102883.94;;;1.68
24714;BMP280;12820;51.580;5.010;2023-03-01T06:30:14;102892.97;;;1.68
24714;BMP280;12820;51.580;5.010;2023-03-01T06:35:18;102884.63;;;1.66
24714;BMP280;12820;51.580;5.010;2023-03-01T06:40:20;102886.16;;;1.64
24714;BMP280;12820;51.580;5.010;2023-03-01T06:45:23;102887.03;;;1.64
24714;BMP280;12820;51.580;5.010;2023-03-01T06:50:26;102897.03;;;1.66
24714;BMP280;12820;51.580;5.010;2023-03-01T06:55:28;102893.69;;;1.65
24714;BMP280;12820;51.580;5.010;2023-03-01T07:00:30;102892.97;;;1.68
24714;BMP280;12820;51.580;5.010;2023-03-01T07:05:33;102903.09;;;1.71
24714;BMP280;12820;51.580;5.010;2023-03-01T07:10:35;102902.38;;;1.73
24714;BMP280;12820;51.580;5.010;2023-03-01T07:15:37;102894.22;;;1.76
24714;BMP280;12820;51.580;5.010;2023-03-01T07:20:39;102892.78;;;1.79
24714;BMP280;12820;51.580;5.010;2023-03-01T07:25:41;102880.63;;;1.83
24714;BMP280;12820;51.580;5.010;2023-03-01T07:30:43;102884.34;;;1.91
24714;BMP280;12820;51.580;5.010;2023-03-01T07:35:46;102883.81;;;1.96
24714;BMP280;12820;51.580;5.010;2023-03-01T07:40:49;102890.81;;;2.03
24714;BMP280;12820;51.580;5.010;2023-03-01T07:45:51;102893.66;;;2.11
24714;BMP280;12820;51.580;5.010;2023-03-01T07:50:53;102899.06;;;2.19
24714;BMP280;12820;51.580;5.010;2023-03-01T07:56:08;102905.44;;;2.30
24714;BMP280;12820;51.580;5.010;2023-03-01T08:01:13;102895.97;;;2.39
24714;BMP280;12820;51.580;5.010;2023-03-01T08:06:16;102888.31;;;2.50
24714;BMP280;12820;51.580;5.010;2023-03-01T08:11:19;102900.44;;;2.61
24714;BMP280;12820;51.580;5.010;2023-03-01T08:16:21;102897.72;;;2.72
24714;BMP280;12820;51.580;5.010;2023-03-01T08:21:23;102896.63;;;2.83
24714;BMP280;12820;51.580;5.010;2023-03-01T08:26:25;102883.91;;;2.94
24714;BMP280;12820;51.580;5.010;2023-03-01T08:31:38;102882.88;;;3.06
24714;BMP280;12820;51.580;5.010;2023-03-01T08:36:43;102891.75;;;3.18
24714;BMP280;12820;51.580;5.010;2023-03-01T08:41:45;102888.13;;;3.29
24714;BMP280;12820;51.580;5.010;2023-03-01T08:46:50;102891.97;;;3.40
24714;BMP280;12820;51.580;5.010;2023-03-01T08:51:53;102884.16;;;3.50
24714;BMP280;12820;51.580;5.010;2023-03-01T08:56:56;102868.91;;;3.61
24714;BMP280;12820;51.580;5.010;2023-03-01T09:02:00;102861.94;;;3.71
24714;BMP280;12820;51.580;5.010;2023-03-01T09:07:03;102865.75;;;3.82
24714;BMP280;12820;51.580;5.010;2023-03-01T09:12:05;102848.81;;;3.92
24714;BMP280;12820;51.580;5.010;2023-03-01T09:17:07;102840.09;;;4.01
24714;BMP280;12820;51.580;5.010;2023-03-01T09:22:10;102826.50;;;4.12
24714;BMP280;12820;51.580;5.010;2023-03-01T09:27:12;102826.91;;;4.22
24714;BMP280;12820;51.580;5.010;2023-03-01T09:32:16;102826.59;;;4.33
24714;BMP280;12820;51.580;5.010;2023-03-01T09:37:18;102816.28;;;4.44
24714;BMP280;12820;51.580;5.010;2023-03-01T09:42:20;102812.63;;;4.57
24714;BMP280;12820;51.580;5.010;2023-03-01T09:47:34;102803.19;;;4.68
24714;BMP280;12820;51.580;5.010;2023-03-01T09:52:50;102802.94;;;4.82
24714;BMP280;12820;51.580;5.010;2023-03-01T09:58:06;102781.03;;;4.96
24714;BMP280;12820;51.580;5.010;2023-03-01T10:08:43;102787.88;;;5.22
24714;BMP280;12820;51.580;5.010;2023-03-01T10:14:03;102783.44;;;5.35
24714;BMP280;12820;51.580;5.010;2023-03-01T10:19:12;102784.78;;;5.49
24714;BMP280;12820;51.580;5.010;2023-03-01T10:24:17;102778.66;;;5.63
24714;BMP280;12820;51.580;5.010;2023-03-01T10:29:31;102765.72;;;5.72
24714;BMP280;12820;51.580;5.010;2023-03-01T10:34:36;102764.56;;;5.86
24714;BMP280;12820;51.580;5.010;2023-03-01T10:39:55;102755.88;;;6.00
24714;BMP280;12820;51.580;5.010;2023-03-01T10:45:55;102754.66;;;6.12
24714;BMP280;12820;51.580;5.010;2023-03-01T10:50:32;102750.16;;;6.26
24714;BMP280;12820;51.580;5.010;2023-03-01T10:55:39;102737.28;;;6.39
24714;BMP280;12820;51.580;5.010;2023-03-01T11:00:56;102726.94;;;6.53
24714;BMP280;12820;51.580;5.010;2023-03-01T11:06:03;102733.25;;;6.68
24714;BMP280;12820;51.580;5.010;2023-03-01T11:11:31;102728.03;;;6.88
24714;BMP280;12820;51.580;5.010;2023-03-01T11:16:36;102728.09;;;7.45
24714;BMP280;12820;51.580;5.010;2023-03-01T11:22:18;102719.53;;;8.28
24714;BMP280;12820;51.580;5.010;2023-03-01T11:27:27;102707.88;;;9.38
24714;BMP280;12820;51.580;5.010;2023-03-01T11:32:50;102700.09;;;10.62
24714;BMP280;12820;51.580;5.010;2023-03-01T11:43:17;102684.16;;;13.07
24714;BMP280;12820;51.580;5.010;2023-03-01T11:59:13;102677.53;;;15.23
24714;BMP280;12820;51.580;5.010;2023-03-01T12:09:41;102659.47;;;15.77
24714;BMP280;12820;51.580;5.010;2023-03-01T12:19:56;102643.97;;;16.18
24714;BMP280;12820;51.580;5.010;2023-03-01T12:25:24;102640.25;;;16.51
24714;BMP280;12820;51.580;5.010;2023-03-01T12:41:43;102622.22;;;17.45
24714;BMP280;12820;51.580;5.010;2023-03-01T12:52:11;102608.88;;;17.27
24714;BMP280;12820;51.580;5.010;2023-03-01T12:57:43;102593.06;;;17.66
24714;BMP280;12820;51.580;5.010;2023-03-01T13:02:53;102580.81;;;18.82
24714;BMP280;12820;51.580;5.010;2023-03-01T13:08:05;102549.50;;;19.14
24714;BMP280;12820;51.580;5.010;2023-03-01T13:13:11;102544.88;;;20.61
24714;BMP280;12820;51.580;5.010;2023-03-01T13:23:26;102533.03;;;23.49
24714;BMP280;12820;51.580;5.010;2023-03-01T13:33:48;102519.06;;;25.59
24714;BMP280;12820;51.580;5.010;2023-03-01T13:43:55;102510.88;;;27.55
24714;BMP280;12820;51.580;5.010;2023-03-01T13:48:58;102493.94;;;28.48
24714;BMP280;12820;51.580;5.010;2023-03-01T13:54:00;102485.66;;;29.22
24714;BMP280;12820;51.580;5.010;2023-03-01T13:59:14;102464.75;;;29.99
24714;BMP280;12820;51.580;5.010;2023-03-01T14:04:26;102470.03;;;30.81
24714;BMP280;12820;51.580;5.010;2023-03-01T14:09:29;102456.09;;;31.51
24714;BMP280;12820;51.580;5.010;2023-03-01T14:20:01;102450.75;;;32.61
24714;BMP280;12820;51.580;5.010;2023-03-01T14:25:21;102433.53;;;32.80
24714;BMP280;12820;51.580;5.010;2023-03-01T14:30:31;102429.53;;;32.76
24714;BMP280;12820;51.580;5.010;2023-03-01T14:35:35;102420.06;;;32.75
24714;BMP280;12820;51.580;5.010;2023-03-01T14:40:38;102410.84;;;32.71
24714;BMP280;12820;51.580;5.010;2023-03-01T14:45:47;102400.31;;;32.62
24714;BMP280;12820;51.580;5.010;2023-03-01T14:50:50;102389.97;;;32.30
24714;BMP280;12820;51.580;5.010;2023-03-01T14:55:55;102387.69;;;31.61
24714;BMP280;12820;51.580;5.010;2023-03-01T15:01:00;102379.25;;;30.80
24714;BMP280;12820;51.580;5.010;2023-03-01T15:06:04;102378.47;;;29.85
24714;BMP280;12820;51.580;5.010;2023-03-01T15:16:17;102374.13;;;28.34
24714;BMP280;12820;51.580;5.010;2023-03-01T15:21:26;102357.41;;;28.12
24714;BMP280;12820;51.580;5.010;2023-03-01T15:26:41;102362.06;;;27.93
24714;BMP280;12820;51.580;5.010;2023-03-01T15:32:00;102371.81;;;27.61
24714;BMP280;12820;51.580;5.010;2023-03-01T15:37:04;102373.22;;;27.24
24714;BMP280;12820;51.580;5.010;2023-03-01T15:42:12;102367.13;;;26.81
24714;BMP280;12820;51.580;5.010;2023-03-01T15:47:27;102363.50;;;26.25
24714;BMP280;12820;51.580;5.010;2023-03-01T15:52:40;102357.97;;;25.69
24714;BMP280;12820;51.580;5.010;2023-03-01T15:57:42;102367.03;;;23.86
24714;BMP280;12820;51.580;5.010;2023-03-01T16:02:44;102361.16;;;22.01
24714;BMP280;12820;51.580;5.010;2023-03-01T16:07:47;102358.94;;;20.68
24714;BMP280;12820;51.580;5.010;2023-03-01T16:12:50;102368.34;;;19.54
24714;BMP280;12820;51.580;5.010;2023-03-01T16:17:54;102355.63;;;18.49
24714;BMP280;12820;51.580;5.010;2023-03-01T16:23:01;102371.13;;;17.57
24714;BMP280;12820;51.580;5.010;2023-03-01T16:28:03;102375.00;;;16.78
24714;BMP280;12820;51.580;5.010;2023-03-01T16:33:10;102369.28;;;16.04
24714;BMP280;12820;51.580;5.010;2023-03-01T16:38:31;102376.78;;;15.34
24714;BMP280;12820;51.580;5.010;2023-03-01T16:43:33;102364.66;;;14.70
24714;BMP280;12820;51.580;5.010;2023-03-01T16:48:35;102372.56;;;14.13
24714;BMP280;12820;51.580;5.010;2023-03-01T16:53:37;102367.66;;;13.59
24714;BMP280;12820;51.580;5.010;2023-03-01T16:58:40;102371.06;;;13.10
24714;BMP280;12820;51.580;5.010;2023-03-01T17:03:43;102375.25;;;12.67
24714;BMP280;12820;51.580;5.010;2023-03-01T17:08:46;102365.88;;;12.25
24714;BMP280;12820;51.580;5.010;2023-03-01T17:13:48;102372.47;;;11.88
24714;BMP280;12820;51.580;5.010;2023-03-01T17:18:51;102379.00;;;11.55
24714;BMP280;12820;51.580;5.010;2023-03-01T17:23:56;102372.03;;;11.22
24714;BMP280;12820;51.580;5.010;2023-03-01T17:28:59;102380.97;;;10.91
24714;BMP280;12820;51.580;5.010;2023-03-01T17:34:01;102378.25;;;10.66
24714;BMP280;12820;51.580;5.010;2023-03-01T17:39:03;102379.63;;;10.40
24714;BMP280;12820;51.580;5.010;2023-03-01T17:44:05;102386.91;;;10.15
24714;BMP280;12820;51.580;5.010;2023-03-01T17:49:07;102401.69;;;9.94
24714;BMP280;12820;51.580;5.010;2023-03-01T17:54:10;102408.91;;;9.74
24714;BMP280;12820;51.580;5.010;2023-03-01T17:59:12;102413.63;;;9.54
24714;BMP280;12820;51.580;5.010;2023-03-01T18:04:14;102412.50;;;9.36
24714;BMP280;12820;51.580;5.010;2023-03-01T18:09:16;102413.91;;;9.18
24714;BMP280;12820;51.580;5.010;2023-03-01T18:14:18;102420.31;;;9.03
24714;BMP280;12820;51.580;5.010;2023-03-01T18:19:21;102419.22;;;8.87
24714;BMP280;12820;51.580;5.010;2023-03-01T18:24:23;102423.97;;;8.73
24714;BMP280;12820;51.580;5.010;2023-03-01T18:29:25;102412.03;;;8.60
24714;BMP280;12820;51.580;5.010;2023-03-01T18:34:27;102410.09;;;8.46
24714;BMP280;12820;51.580;5.010;2023-03-01T18:39:29;102404.81;;;8.33
24714;BMP280;12820;51.580;5.010;2023-03-01T18:44:32;102407.91;;;8.22
24714;BMP280;12820;51.580;5.010;2023-03-01T18:49:34;102415.16;;;8.09
24714;BMP280;12820;51.580;5.010;2023-03-01T18:54:37;102412.38;;;7.97
24714;BMP280;12820;51.580;5.010;2023-03-01T18:59:39;102425.50;;;7.87
24714;BMP280;12820;51.580;5.010;2023-03-01T19:04:41;102417.75;;;7.76
24714;BMP280;12820;51.580;5.010;2023-03-01T19:09:43;102417.50;;;7.65
24714;BMP280;12820;51.580;5.010;2023-03-01T19:14:48;102420.63;;;7.56
24714;BMP280;12820;51.580;5.010;2023-03-01T19:19:52;102417.03;;;7.45
24714;BMP280;12820;51.580;5.010;2023-03-01T19:24:54;102410.09;;;7.34
24714;BMP280;12820;51.580;5.010;2023-03-01T19:29:56;102412.41;;;7.25
24714;BMP280;12820;51.580;5.010;2023-03-01T19:34:58;102415.47;;;7.15
24714;BMP280;12820;51.580;5.010;2023-03-01T19:40:01;102412.78;;;7.07
24714;BMP280;12820;51.580;5.010;2023-03-01T19:45:03;102402.50;;;6.96
24714;BMP280;12820;51.580;5.010;2023-03-01T19:50:06;102429.78;;;6.89
24714;BMP280;12820;51.580;5.010;2023-03-01T19:55:08;102416.28;;;6.81
24714;BMP280;12820;51.580;5.010;2023-03-01T20:00:11;102423.53;;;6.73
24714;BMP280;12820;51.580;5.010;2023-03-01T20:05:13;102419.97;;;6.63
24714;BMP280;12820;51.580;5.010;2023-03-01T20:10:16;102418.09;;;6.56
24714;BMP280;12820;51.580;5.010;2023-03-01T20:15:19;102415.41;;;6.49
24714;BMP280;12820;51.580;5.010;2023-03-01T20:20:21;102418.53;;;6.42
24714;BMP280;12820;51.580;5.010;2023-03-01T20:25:23;102411.72;;;6.37
24714;BMP280;12820;51.580;5.010;2023-03-01T20:30:25;102427.34;;;6.30
24714;BMP280;12820;51.580;5.010;2023-03-01T20:35:27;102418.00;;;6.23
24714;BMP280;12820;51.580;5.010;2023-03-01T20:40:35;102419.47;;;6.17
24714;BMP280;12820;51.580;5.010;2023-03-01T20:45:37;102419.31;;;6.11
24714;BMP280;12820;51.580;5.010;2023-03-01T20:50:40;102412.44;;;6.04
24714;BMP280;12820;51.580;5.010;2023-03-01T20:55:42;102407.38;;;6.02
24714;BMP280;12820;51.580;5.010;2023-03-01T21:00:44;102398.91;;;5.97
24714;BMP280;12820;51.580;5.010;2023-03-01T21:05:46;102413.69;;;5.91
24714;BMP280;12820;51.580;5.010;2023-03-01T21:10:49;102409.44;;;5.87
24714;BMP280;12820;51.580;5.010;2023-03-01T21:21:04;102403.28;;;5.76
24714;BMP280;12820;51.580;5.010;2023-03-01T21:31:12;102409.59;;;5.66
24714;BMP280;12820;51.580;5.010;2023-03-01T21:36:15;102419.47;;;5.63
24714;BMP280;12820;51.580;5.010;2023-03-01T21:41:19;102401.00;;;5.58
24714;BMP280;12820;51.580;5.010;2023-03-01T21:46:23;102415.84;;;5.53
24714;BMP280;12820;51.580;5.010;2023-03-01T21:51:26;102411.56;;;5.49
24714;BMP280;12820;51.580;5.010;2023-03-01T21:56:30;102414.78;;;5.47
24714;BMP280;12820;51.580;5.010;2023-03-01T22:01:36;102411.31;;;5.42
24714;BMP280;12820;51.580;5.010;2023-03-01T22:06:40;102411.25;;;5.39
24714;BMP280;12820;51.580;5.010;2023-03-01T22:11:46;102413.59;;;5.35
24714;BMP280;12820;51.580;5.010;2023-03-01T22:16:49;102422.56;;;5.30
24714;BMP280;12820;51.580;5.010;2023-03-01T22:21:55;102415.81;;;5.26
24714;BMP280;12820;51.580;5.010;2023-03-01T22:26:57;102413.97;;;5.22
24714;BMP280;12820;51.580;5.010;2023-03-01T22:31:59;102413.91;;;5.19
24714;BMP280;12820;51.580;5.010;2023-03-01T22:37:02;102411.34;;;5.18
24714;BMP280;12820;51.580;5.010;2023-03-01T22:42:04;102417.09;;;5.15
24714;BMP280;12820;51.580;5.010;2023-03-01T22:47:07;102423.66;;;5.12
24714;BMP280;12820;51.580;5.010;2023-03-01T22:52:09;102413.50;;;5.08
24714;BMP280;12820;51.580;5.010;2023-03-01T22:57:11;102415.09;;;5.06
24714;BMP280;12820;51.580;5.010;2023-03-01T23:02:14;102410.84;;;5.02
24714;BMP280;12820;51.580;5.010;2023-03-01T23:07:16;102418.94;;;4.96
24714;BMP280;12820;51.580;5.010;2023-03-01T23:12:18;102412.19;;;4.93
24714;BMP280;12820;51.580;5.010;2023-03-01T23:17:21;102417.03;;;4.90
24714;BMP280;12820;51.580;5.010;2023-03-01T23:22:23;102408.56;;;4.85
24714;BMP280;12820;51.580;5.010;2023-03-01T23:27:25;102409.34;;;4.82
24714;BMP280;12820;51.580;5.010;2023-03-01T23:32:27;102409.19;;;4.78
24714;BMP280;12820;51.580;5.010;2023-03-01T23:37:30;102409.03;;;4.74
24714;BMP280;12820;51.580;5.010;2023-03-01T23:42:33;102399.75;;;4.70
24714;BMP280;12820;51.580;5.010;2023-03-01T23:47:35;102398.81;;;4.66
24714;BMP280;12820;51.580;5.010;2023-03-01T23:52:38;102397.00;;;4.62
24714;BMP280;12820;51.580;5.010;2023-03-01T23:57:42;102400.19;;;4.59
